createdAt,value
2022-11-10T00:00:14.937Z,15.6
2022-11-10T00:01:20.116Z,17.8
2022-11-10T00:02:24.976Z,16.7
2022-11-10T00:03:29.492Z,16.6
2022-11-10T00:04:33.824Z,17
2022-11-10T00:05:37.887Z,16.6
2022-11-10T00:06:41.999Z,15.8
2022-11-10T00:07:48.532Z,17.4
2022-11-10T00:08:52.676Z,15.6
2022-11-10T00:09:56.757Z,16.7
2022-11-10T00:11:00.869Z,17.2
2022-11-10T00:12:05.352Z,17.1
2022-11-10T00:13:09.349Z,16
2022-11-10T00:14:13.694Z,17.6
2022-11-10T00:15:23.117Z,16.5
2022-11-10T00:16:32.265Z,16.6
2022-11-10T00:17:41.524Z,17.4
2022-11-10T00:18:45.445Z,17.8
2022-11-10T00:19:49.556Z,19.5
2022-11-10T00:20:53.584Z,17
2022-11-10T00:21:57.641Z,17
2022-11-10T00:23:01.753Z,18.6
2022-11-10T00:24:05.797Z,16.1
2022-11-10T00:25:09.988Z,18.1
2022-11-10T00:26:14.038Z,19
2022-11-10T00:27:18.253Z,18.8
2022-11-10T00:28:22.864Z,17.9
2022-11-10T00:29:27.496Z,17.2
2022-11-10T00:30:31.926Z,19.4
2022-11-10T00:31:35.962Z,19.3
2022-11-10T00:32:40.134Z,18.2
2022-11-10T00:33:44.739Z,19.3
2022-11-10T00:34:48.688Z,20.6
2022-11-10T00:35:52.831Z,19.4
2022-11-10T00:36:56.809Z,21
2022-11-10T00:38:01.033Z,17.8
2022-11-10T00:39:05.520Z,18.3
2022-11-10T00:40:10.076Z,21
2022-11-10T00:41:14.204Z,20.3
2022-11-10T00:42:18.312Z,21
2022-11-10T00:43:26.279Z,20.6
2022-11-10T00:44:27.325Z,21.6
2022-11-10T00:45:31.565Z,21.8
2022-11-10T00:46:35.735Z,22.7
2022-11-10T00:47:40.254Z,19.5
2022-11-10T00:48:44.805Z,21.3
2022-11-10T00:49:48.896Z,22.2
2022-11-10T00:50:53.010Z,21.3
2022-11-10T00:51:57.485Z,21
2022-11-10T00:53:01.480Z,23.2
2022-11-10T00:54:05.973Z,23.3
2022-11-10T00:55:10.120Z,21.1
2022-11-10T00:56:14.238Z,22
2022-11-10T00:57:18.584Z,24
2022-11-10T00:58:23.281Z,21.7
2022-11-10T00:59:27.574Z,20.3
2022-11-10T01:00:32.138Z,19.8
2022-11-10T01:01:36.219Z,23.9
2022-11-10T01:02:40.304Z,21.7
2022-11-10T01:03:44.269Z,22.4
2022-11-10T01:04:48.437Z,21.7
2022-11-10T01:05:52.535Z,19.8
2022-11-10T01:06:56.637Z,22.3
2022-11-10T01:08:01.184Z,22.8
2022-11-10T01:09:05.167Z,21
2022-11-10T01:10:09.265Z,22.2
2022-11-10T01:11:13.553Z,24.3
2022-11-10T01:12:18.089Z,23.3
2022-11-10T01:13:22.392Z,23.5
2022-11-10T01:14:26.731Z,23.5
2022-11-10T01:15:31.257Z,22.4
2022-11-10T01:16:35.807Z,23.6
2022-11-10T01:17:39.919Z,22.8
2022-11-10T01:18:44.432Z,23.9
2022-11-10T01:19:51.502Z,23.5
2022-11-10T01:20:56.101Z,20.9
2022-11-10T01:22:00.224Z,23.9
2022-11-10T01:23:04.344Z,23.2
2022-11-10T01:24:08.412Z,23.4
2022-11-10T01:25:13.120Z,22.1
2022-11-10T01:26:17.539Z,21.1
2022-11-10T01:27:21.575Z,22.9
2022-11-10T01:28:25.849Z,23.8
2022-11-10T01:29:30.301Z,21.1
2022-11-10T01:30:34.416Z,22.1
2022-11-10T01:31:38.464Z,22.5
2022-11-10T01:32:42.525Z,22.9
2022-11-10T01:33:46.632Z,21.9
2022-11-10T01:34:50.965Z,19.9
2022-11-10T01:35:55.221Z,22.2
2022-11-10T01:36:59.567Z,20.3
2022-11-10T01:38:04.004Z,21.5
2022-11-10T01:39:08.464Z,22.5
2022-11-10T01:40:13.199Z,22.1
2022-11-10T01:41:17.105Z,22.8
2022-11-10T01:42:21.217Z,19.3
2022-11-10T01:43:25.274Z,21.4
2022-11-10T01:44:29.368Z,22.1
2022-11-10T01:45:36.361Z,19.7
2022-11-10T01:46:50.709Z,19.1
2022-11-10T01:47:55.194Z,22.1
2022-11-10T01:48:59.220Z,21.8
2022-11-10T01:50:03.859Z,20.6
2022-11-10T01:51:08.605Z,21.7
2022-11-10T01:52:15.675Z,19.8
2022-11-10T01:53:20.478Z,19
2022-11-10T01:54:24.788Z,19.5
2022-11-10T01:55:35.149Z,22.6
2022-11-10T01:56:39.421Z,21.7
2022-11-10T01:57:43.813Z,21.4
2022-11-10T01:58:48.161Z,20.7
2022-11-10T01:59:52.676Z,19.6
2022-11-10T02:00:56.741Z,23.9
2022-11-10T02:02:00.793Z,20.9
2022-11-10T02:03:10.328Z,21.8
2022-11-10T02:04:19.592Z,23.5
2022-11-10T02:05:23.675Z,23.9
2022-11-10T02:06:27.792Z,23.2
2022-11-10T02:07:31.907Z,23
2022-11-10T02:08:35.872Z,25
2022-11-10T02:09:40.025Z,22.8
2022-11-10T02:10:44.093Z,22
2022-11-10T02:11:48.185Z,21.3
2022-11-10T02:12:52.468Z,23.3
2022-11-10T02:13:57.116Z,23.9
2022-11-10T02:15:01.360Z,25.2
2022-11-10T02:16:05.881Z,23
2022-11-10T02:17:10.641Z,22.6
2022-11-10T02:18:14.713Z,22.5
2022-11-10T02:19:19.188Z,24.5
2022-11-10T02:20:23.281Z,24.5
2022-11-10T02:21:27.336Z,23.6
2022-11-10T02:22:31.453Z,26.9
2022-11-10T02:23:35.550Z,26.2
2022-11-10T02:24:39.614Z,22.5
2022-11-10T02:25:44.109Z,27.4
2022-11-10T02:26:48.199Z,25.1
2022-11-10T02:27:54.732Z,24.7
2022-11-10T02:28:59.005Z,25.8
2022-11-10T02:30:03.450Z,23.8
2022-11-10T02:31:08.077Z,23
2022-11-10T02:32:12.108Z,26.8
2022-11-10T02:33:16.285Z,25.7
2022-11-10T02:34:20.404Z,24.5
2022-11-10T02:35:24.832Z,25.6
2022-11-10T02:36:28.915Z,23.3
2022-11-10T02:37:33.084Z,26.3
2022-11-10T02:38:37.073Z,22.6
2022-11-10T02:39:41.208Z,23.7
2022-11-10T02:40:45.280Z,23.3
2022-11-10T02:41:49.783Z,25.3
2022-11-10T02:42:53.792Z,23.5
2022-11-10T02:43:58.197Z,23.7
2022-11-10T02:45:02.544Z,23.4
2022-11-10T02:46:07.140Z,25.7
2022-11-10T02:47:11.160Z,24.1
2022-11-10T02:48:15.284Z,26.2
2022-11-10T02:49:19.817Z,24.6
2022-11-10T02:50:24.020Z,23.4
2022-11-10T02:51:28.468Z,24
2022-11-10T02:52:33.005Z,28.7
2022-11-10T02:53:37.550Z,25.3
2022-11-10T02:54:41.572Z,25.9
2022-11-10T02:55:45.861Z,27.1
2022-11-10T02:56:50.239Z,22.6
2022-11-10T02:57:54.767Z,22.5
2022-11-10T02:58:58.799Z,25
2022-11-10T03:00:02.931Z,23.3
2022-11-10T03:01:07.532Z,23.8
2022-11-10T03:02:11.692Z,23.4
2022-11-10T03:03:16.128Z,24.3
2022-11-10T03:04:20.324Z,22.3
2022-11-10T03:05:24.769Z,24.1
2022-11-10T03:06:29.522Z,24.7
2022-11-10T03:07:33.346Z,22.5
2022-11-10T03:08:37.589Z,25.5
2022-11-10T03:09:42.084Z,25.9
2022-11-10T03:10:46.207Z,27.4
2022-11-10T03:11:50.715Z,23.8
2022-11-10T03:12:54.680Z,25.2
2022-11-10T03:14:01.741Z,24.2
2022-11-10T03:15:02.799Z,23
2022-11-10T03:16:07.621Z,24.2
2022-11-10T03:17:12.072Z,25.1
2022-11-10T03:18:16.642Z,26.5
2022-11-10T03:19:21.143Z,25.7
2022-11-10T03:20:25.123Z,23.8
2022-11-10T03:21:29.247Z,24.5
2022-11-10T03:22:33.508Z,23.2
2022-11-10T03:23:37.804Z,23.2
2022-11-10T03:24:42.096Z,25.7
2022-11-10T03:25:46.425Z,23.8
2022-11-10T03:26:50.516Z,23.6
2022-11-10T03:27:55.195Z,28.1
2022-11-10T03:28:59.384Z,23.9
2022-11-10T03:30:03.779Z,24.1
2022-11-10T03:31:08.315Z,23.9
2022-11-10T03:32:12.296Z,25.2
2022-11-10T03:33:16.451Z,25.6
2022-11-10T03:34:20.742Z,24.2
2022-11-10T03:35:25.196Z,23.8
2022-11-10T03:36:29.667Z,24.7
2022-11-10T03:37:33.704Z,23.9
2022-11-10T03:38:37.720Z,24.3
2022-11-10T03:39:42.016Z,25.1
2022-11-10T03:41:12.398Z,26.5
2022-11-10T03:41:50.861Z,26.6
2022-11-10T03:42:55.040Z,28.5
2022-11-10T03:43:59.285Z,25
2022-11-10T03:45:03.775Z,25.6
2022-11-10T03:46:08.239Z,24.4
2022-11-10T03:47:12.308Z,26.7
2022-11-10T03:48:16.456Z,26
2022-11-10T03:49:20.468Z,24.3
2022-11-10T03:50:24.537Z,23.3
2022-11-10T03:51:28.552Z,23.6
2022-11-10T03:52:32.729Z,26.1
2022-11-10T03:53:38.107Z,23.6
2022-11-10T03:54:42.332Z,24.7
2022-11-10T03:55:46.979Z,24
2022-11-10T03:56:50.967Z,25.8
2022-11-10T03:57:55.070Z,24.8
2022-11-10T03:59:02.132Z,25.4
2022-11-10T04:00:06.598Z,25.1
2022-11-10T04:01:11.238Z,25.3
2022-11-10T04:02:15.624Z,26.1
2022-11-10T04:03:20.327Z,25.8
2022-11-10T04:04:24.813Z,25.8
2022-11-10T04:05:34.424Z,25.5
2022-11-10T04:06:43.890Z,25.1
2022-11-10T04:07:52.979Z,24.9
2022-11-10T04:09:02.208Z,24.6
2022-11-10T04:10:06.656Z,26.3
2022-11-10T04:11:10.816Z,24
2022-11-10T04:12:14.872Z,25.8
2022-11-10T04:13:24.348Z,27.8
2022-11-10T04:14:33.716Z,24.6
2022-11-10T04:15:42.810Z,24.1
2022-11-10T04:16:47.129Z,23.1
2022-11-10T04:17:51.544Z,26.9
2022-11-10T04:18:55.596Z,24.2
2022-11-10T04:19:59.912Z,24.4
2022-11-10T04:21:04.371Z,24.5
2022-11-10T04:22:08.800Z,23.5
2022-11-10T04:23:12.994Z,24.7
2022-11-10T04:24:22.607Z,24
2022-11-10T04:25:26.772Z,25.8
2022-11-10T04:26:31.339Z,23.7
2022-11-10T04:27:35.345Z,23.9
2022-11-10T04:28:39.916Z,26
2022-11-10T04:29:43.943Z,23.9
2022-11-10T04:30:48.131Z,26.2
2022-11-10T04:31:52.151Z,24.3
2022-11-10T04:32:56.345Z,24.1
2022-11-10T04:34:00.747Z,23.3
2022-11-10T04:35:04.834Z,23.2
2022-11-10T04:36:09.351Z,25.6
2022-11-10T04:37:13.552Z,22.9
2022-11-10T04:38:18.127Z,27
2022-11-10T04:39:22.153Z,26.3
2022-11-10T04:40:26.365Z,24.5
2022-11-10T04:41:30.732Z,22.7
2022-11-10T04:42:34.899Z,23.7
2022-11-10T04:43:38.959Z,24
2022-11-10T04:44:43.033Z,25.5
2022-11-10T04:45:47.429Z,24.3
2022-11-10T04:46:51.855Z,24.9
2022-11-10T04:47:56.297Z,26.2
2022-11-10T04:49:01.049Z,25.6
2022-11-10T04:50:05.459Z,24.8
2022-11-10T04:51:09.997Z,25.5
2022-11-10T04:52:14.472Z,24.4
2022-11-10T04:53:18.819Z,24
2022-11-10T04:54:22.693Z,23.2
2022-11-10T04:55:27.283Z,24.1
2022-11-10T04:56:31.339Z,25.4
2022-11-10T04:57:35.999Z,23.4
2022-11-10T04:58:40.417Z,25
2022-11-10T04:59:44.444Z,25.4
2022-11-10T05:00:48.560Z,26.2
2022-11-10T05:01:52.697Z,25.4
2022-11-10T05:02:57.281Z,24.7
2022-11-10T05:04:01.901Z,25.1
2022-11-10T05:05:06.400Z,23.6
2022-11-10T05:06:10.716Z,24.9
2022-11-10T05:07:15.293Z,26.3
2022-11-10T05:08:19.712Z,26.2
2022-11-10T05:09:23.741Z,26
2022-11-10T05:10:27.868Z,25.1
2022-11-10T05:11:31.925Z,25.3
2022-11-10T05:12:36.447Z,24.9
2022-11-10T05:13:40.940Z,26.8
2022-11-10T05:14:45.189Z,27.8
2022-11-10T05:15:50.104Z,26.3
2022-11-10T05:16:54.408Z,25.2
2022-11-10T05:17:58.831Z,27.4
2022-11-10T05:19:03.437Z,27.4
2022-11-10T05:20:07.644Z,26.5
2022-11-10T05:21:12.171Z,27.2
2022-11-10T05:22:16.184Z,26.5
2022-11-10T05:23:20.518Z,25.4
2022-11-10T05:24:29.920Z,24.2
2022-11-10T05:25:33.984Z,25.4
2022-11-10T05:26:38.109Z,27.1
2022-11-10T05:27:42.084Z,25.1
2022-11-10T05:28:46.262Z,23.1
2022-11-10T05:29:50.301Z,24.6
2022-11-10T05:30:54.711Z,25.2
2022-11-10T05:31:58.947Z,23.8
2022-11-10T05:33:03.571Z,23.7
2022-11-10T05:34:07.602Z,24.5
2022-11-10T05:35:12.063Z,25.8
2022-11-10T05:36:16.288Z,24.2
2022-11-10T05:37:20.348Z,24.3
2022-11-10T05:38:24.955Z,24.5
2022-11-10T05:39:29.076Z,25.3
2022-11-10T05:40:33.633Z,24.5
2022-11-10T05:41:38.061Z,24.9
2022-11-10T05:42:42.204Z,24.7
2022-11-10T05:43:46.189Z,26.4
2022-11-10T05:44:50.296Z,25.5
2022-11-10T05:45:54.439Z,24.7
2022-11-10T05:46:59.095Z,25.5
2022-11-10T05:48:03.514Z,24.6
2022-11-10T05:49:07.511Z,24.9
2022-11-10T05:50:11.755Z,26.2
2022-11-10T05:51:15.907Z,25.5
2022-11-10T05:52:20.331Z,22.6
2022-11-10T05:53:24.702Z,24.1
2022-11-10T05:54:28.487Z,24.5
2022-11-10T05:55:32.536Z,24.8
2022-11-10T05:56:36.684Z,22.5
2022-11-10T05:57:41.190Z,21.4
2022-11-10T05:58:45.205Z,23.8
2022-11-10T05:59:49.560Z,23.9
2022-11-10T06:00:53.971Z,23.4
2022-11-10T06:01:58.443Z,24.5
2022-11-10T06:03:02.649Z,23.4
2022-11-10T06:04:07.561Z,25.2
2022-11-10T06:05:12.984Z,27.5
2022-11-10T06:06:17.520Z,28.3
2022-11-10T06:07:22.088Z,26.6
2022-11-10T06:08:26.606Z,27
2022-11-10T06:09:31.111Z,27.9
2022-11-10T06:10:35.618Z,27.5
2022-11-10T06:11:39.812Z,29
2022-11-10T06:12:46.201Z,27
2022-11-10T06:13:48.350Z,27.4
2022-11-10T06:14:53.307Z,25.7
2022-11-10T06:15:57.532Z,27.5
2022-11-10T06:17:01.644Z,27.7
2022-11-10T06:18:05.847Z,27
2022-11-10T06:19:10.331Z,24.2
2022-11-10T06:20:14.884Z,24.8
2022-11-10T06:21:19.063Z,24.9
2022-11-10T06:22:23.455Z,26.6
2022-11-10T06:23:27.719Z,25
2022-11-10T06:24:32.411Z,25.5
2022-11-10T06:25:37.523Z,25.5
2022-11-10T06:26:41.935Z,25.2
2022-11-10T06:27:46.423Z,24.6
2022-11-10T06:28:50.546Z,23.7
2022-11-10T06:29:55.140Z,23.6
2022-11-10T06:30:59.159Z,22.8
2022-11-10T06:32:03.975Z,24.2
2022-11-10T06:33:08.099Z,23.3
2022-11-10T06:34:14.652Z,23.7
2022-11-10T06:35:19.058Z,25.6
2022-11-10T06:36:23.757Z,24.4
2022-11-10T06:37:28.161Z,24.7
2022-11-10T06:38:32.676Z,22.9
2022-11-10T06:39:36.903Z,22.8
2022-11-10T06:40:41.591Z,24.9
2022-11-10T06:41:45.980Z,25.4
2022-11-10T06:42:50.542Z,25.2
2022-11-10T06:43:55.188Z,22.8
2022-11-10T06:44:59.668Z,24.2
2022-11-10T06:46:04.300Z,24.6
2022-11-10T06:47:08.986Z,23.3
2022-11-10T06:48:13.519Z,21.9
2022-11-10T06:49:17.671Z,23.2
2022-11-10T06:50:22.187Z,23.4
2022-11-10T06:51:26.711Z,24.7
2022-11-10T06:52:30.879Z,24
2022-11-10T06:53:35.559Z,23.1
2022-11-10T06:54:40.042Z,23.9
2022-11-10T06:55:44.644Z,22.1
2022-11-10T06:56:49.164Z,22.8
2022-11-10T06:57:53.687Z,22.6
2022-11-10T06:58:58.200Z,23.1
2022-11-10T07:00:02.403Z,24.2
2022-11-10T07:01:07.051Z,24.1
2022-11-10T07:02:11.492Z,25.8
2022-11-10T07:03:15.781Z,26
2022-11-10T07:04:21.130Z,25.6
2022-11-10T07:05:24.683Z,26.2
2022-11-10T07:06:29.092Z,27.4
2022-11-10T07:07:33.506Z,26.1
2022-11-10T07:08:38.043Z,24.9
2022-11-10T07:09:42.855Z,27.3
2022-11-10T07:10:47.415Z,26.2
2022-11-10T07:11:54.207Z,25.4
2022-11-10T07:12:58.382Z,26.6
2022-11-10T07:14:02.662Z,25.4
2022-11-10T07:15:06.946Z,25.1
2022-11-10T07:16:11.095Z,24.7
2022-11-10T07:17:15.141Z,25.6
2022-11-10T07:18:19.867Z,27.4
2022-11-10T07:19:23.867Z,25.9
2022-11-10T07:20:27.938Z,26.3
2022-11-10T07:21:32.057Z,28.4
2022-11-10T07:22:36.385Z,28
2022-11-10T07:23:40.735Z,27.1
2022-11-10T07:24:44.920Z,24.9
2022-11-10T07:25:49.431Z,25.1
2022-11-10T07:26:54.155Z,27
2022-11-10T07:27:58.423Z,25.8
2022-11-10T07:29:02.586Z,26.8
2022-11-10T07:30:07.170Z,27
2022-11-10T07:31:11.891Z,25.3
2022-11-10T07:32:16.218Z,23.4
2022-11-10T07:33:20.846Z,25.5
2022-11-10T07:34:24.505Z,28.3
2022-11-10T07:35:29.946Z,25.7
2022-11-10T07:36:34.343Z,25.2
2022-11-10T07:37:38.725Z,27.1
2022-11-10T07:38:42.802Z,26
2022-11-10T07:39:47.470Z,26
2022-11-10T07:40:52.035Z,27.4
2022-11-10T07:41:56.559Z,25.3
2022-11-10T07:43:00.615Z,26.4
2022-11-10T07:44:05.221Z,25.1
2022-11-10T07:45:09.850Z,25
2022-11-10T07:46:14.455Z,26.4
2022-11-10T07:47:18.646Z,25.7
2022-11-10T07:48:23.303Z,27
2022-11-10T07:49:27.711Z,27.9
2022-11-10T07:50:32.214Z,27.6
2022-11-10T07:51:36.346Z,26.7
2022-11-10T07:52:40.555Z,27.3
2022-11-10T07:53:45.056Z,27.5
2022-11-10T07:54:49.675Z,27.4
2022-11-10T07:55:54.525Z,27.6
2022-11-10T07:56:58.899Z,29.7
2022-11-10T07:58:03.396Z,29.5
2022-11-10T07:59:08.230Z,29
2022-11-10T08:00:12.344Z,29.1
2022-11-10T08:01:17.244Z,29.3
2022-11-10T08:02:21.624Z,29.4
2022-11-10T08:03:26.115Z,29.6
2022-11-10T08:04:29.826Z,29.3
2022-11-10T08:05:34.348Z,29.1
2022-11-10T08:06:38.583Z,29.3
2022-11-10T08:07:43.014Z,28.9
2022-11-10T08:08:47.230Z,30.3
2022-11-10T08:09:51.774Z,28.7
2022-11-10T08:10:56.285Z,29
2022-11-10T08:12:00.917Z,28.8
2022-11-10T08:13:05.469Z,29.5
2022-11-10T08:14:10.468Z,29.9
2022-11-10T08:15:14.653Z,27
2022-11-10T08:16:18.682Z,25.8
2022-11-10T08:17:22.784Z,29.4
2022-11-10T08:18:29.656Z,29.4
2022-11-10T08:19:31.113Z,28
2022-11-10T08:20:35.393Z,27.3
2022-11-10T08:21:39.569Z,26
2022-11-10T08:22:44.269Z,27.9
2022-11-10T08:23:48.771Z,30.6
2022-11-10T08:24:53.563Z,29.9
2022-11-10T08:25:57.889Z,28.2
2022-11-10T08:27:02.360Z,25.9
2022-11-10T08:28:06.525Z,27.3
2022-11-10T08:29:16.253Z,27.6
2022-11-10T08:30:23.723Z,26.1
2022-11-10T08:31:27.973Z,27.5
2022-11-10T08:32:39.534Z,27.7
2022-11-10T08:33:43.674Z,27.1
2022-11-10T08:34:48.268Z,28.4
2022-11-10T08:35:52.269Z,27.7
2022-11-10T08:36:56.943Z,28.2
2022-11-10T08:38:05.289Z,29.1
2022-11-10T08:39:08.769Z,29.2
2022-11-10T08:40:13.272Z,28.9
2022-11-10T08:41:17.286Z,29.3
2022-11-10T08:42:21.391Z,27.4
2022-11-10T08:43:26.337Z,30.2
2022-11-10T08:44:30.530Z,27.4
2022-11-10T08:45:34.766Z,28
2022-11-10T08:46:39.440Z,27.9
2022-11-10T08:47:44.385Z,30.3
2022-11-10T08:48:49.247Z,28.1
2022-11-10T08:49:53.709Z,30.5
2022-11-10T08:50:58.173Z,29.2
2022-11-10T08:52:02.934Z,25.9
2022-11-10T08:53:07.323Z,26.3
2022-11-10T08:54:12.019Z,24
2022-11-10T08:56:18.472Z,24
2022-11-10T08:58:22.791Z,24
2022-11-10T08:59:27.214Z,27.2
2022-11-10T09:00:31.439Z,29.3
2022-11-10T09:01:35.925Z,29.2
2022-11-10T09:02:40.536Z,30.6
2022-11-10T09:03:45.379Z,27.4
2022-11-10T09:04:49.841Z,25.3
2022-11-10T09:05:58.155Z,29
2022-11-10T09:06:58.998Z,25.3
2022-11-10T09:08:03.704Z,27.4
2022-11-10T09:09:08.178Z,26.6
2022-11-10T09:10:12.524Z,26.2
2022-11-10T09:11:16.795Z,26.8
2022-11-10T09:12:21.472Z,28
2022-11-10T09:13:29.751Z,26.3
2022-11-10T09:14:30.664Z,25.3
2022-11-10T09:15:35.028Z,27.9
2022-11-10T09:16:40.099Z,26.7
2022-11-10T09:17:44.696Z,26.6
2022-11-10T09:18:49.380Z,27.5
2022-11-10T09:19:54.036Z,26.4
2022-11-10T09:20:58.690Z,28.4
2022-11-10T09:22:03.751Z,27.5
2022-11-10T09:23:08.219Z,28.1
2022-11-10T09:24:15.359Z,30.1
2022-11-10T09:25:19.943Z,31.7
2022-11-10T09:26:24.555Z,28
2022-11-10T09:27:29.332Z,31.7
2022-11-10T09:28:37.247Z,32.5
2022-11-10T09:29:41.843Z,30.8
2022-11-10T09:30:46.514Z,29.8
2022-11-10T09:31:50.936Z,29.8
2022-11-10T09:32:55.675Z,29.9
2022-11-10T09:34:00.210Z,32.2
2022-11-10T09:35:04.918Z,30.7
2022-11-10T09:36:09.516Z,30.6
2022-11-10T09:37:14.111Z,32.2
2022-11-10T09:38:19.384Z,31.9
2022-11-10T09:39:23.742Z,31.9
2022-11-10T09:40:28.343Z,32.7
2022-11-10T09:41:43.060Z,31.7
2022-11-10T09:42:47.695Z,30.8
2022-11-10T09:43:52.209Z,29.8
2022-11-10T09:45:01.611Z,31
2022-11-10T09:46:11.578Z,28.6
2022-11-10T09:47:35.469Z,32.3
2022-11-10T09:48:23.616Z,27
2022-11-10T09:49:30.418Z,27.3
2022-11-10T09:50:40.147Z,27.8
2022-11-10T09:51:48.523Z,27.4
2022-11-10T09:52:51.823Z,26.4
2022-11-10T09:53:56.320Z,26.3
2022-11-10T09:55:03.935Z,25.5
2022-11-10T09:56:18.703Z,25.5
2022-11-10T09:57:28.353Z,29.2
2022-11-10T09:58:32.947Z,26.5
2022-11-10T09:59:43.186Z,30.3
2022-11-10T10:00:47.723Z,26.4
2022-11-10T10:01:52.296Z,30.9
2022-11-10T10:02:56.418Z,30
2022-11-10T10:04:03.998Z,32.3
2022-11-10T10:05:14.043Z,31.7
2022-11-10T10:06:23.639Z,31.6
2022-11-10T10:07:28.103Z,31.4
2022-11-10T10:08:42.823Z,30.6
2022-11-10T10:09:52.423Z,31.9
2022-11-10T10:11:02.231Z,33
2022-11-10T10:12:14.771Z,32.1
2022-11-10T10:13:29.823Z,34.6
2022-11-10T10:14:42.483Z,34.7
2022-11-10T10:15:47.438Z,31.6
2022-11-10T10:16:56.974Z,32.3
2022-11-10T10:18:01.704Z,29.9
2022-11-10T10:19:16.215Z,29.4
2022-11-10T10:20:23.891Z,29.1
2022-11-10T10:21:36.466Z,27.8
2022-11-10T10:22:52.466Z,31.7
2022-11-10T10:24:13.738Z,32.2
2022-11-10T10:25:06.796Z,32.3
2022-11-10T10:26:16.510Z,33
2022-11-10T10:27:23.671Z,31.8
2022-11-10T10:28:28.284Z,30.4
2022-11-10T10:29:37.171Z,29
2022-11-10T10:30:45.603Z,27
2022-11-10T10:31:50.238Z,28
2022-11-10T10:32:54.675Z,26.4
2022-11-10T10:33:59.344Z,23.8
2022-11-10T10:35:03.858Z,23.5
2022-11-10T10:36:08.510Z,24.5
2022-11-10T10:37:16.062Z,25.4
2022-11-10T10:38:21.084Z,27.6
2022-11-10T10:39:28.327Z,29.1
2022-11-10T10:40:35.482Z,28
2022-11-10T10:41:40.247Z,27.1
2022-11-10T10:42:44.723Z,28.7
2022-11-10T10:43:49.434Z,24.8
2022-11-10T10:44:54.263Z,26.3
2022-11-10T10:46:08.845Z,25
2022-11-10T10:47:13.585Z,26.5
2022-11-10T10:48:18.234Z,26.5
2022-11-10T10:49:28.926Z,24.8
2022-11-10T10:50:30.399Z,21.9
2022-11-10T10:51:34.971Z,23.9
2022-11-10T10:52:39.629Z,25.9
2022-11-10T10:53:44.186Z,26.5
2022-11-10T10:54:48.694Z,25.9
2022-11-10T10:55:58.439Z,23.2
2022-11-10T10:57:02.918Z,23.4
2022-11-10T10:58:17.891Z,25.2
2022-11-10T10:59:27.374Z,26.6
2022-11-10T11:00:32.163Z,24.7
2022-11-10T11:01:42.280Z,24.7
2022-11-10T11:02:46.696Z,25.4
2022-11-10T11:03:56.508Z,25.1
2022-11-10T11:05:00.937Z,24.1
2022-11-10T11:06:10.793Z,24.3
2022-11-10T11:07:15.530Z,23
2022-11-10T11:08:20.803Z,24.4
2022-11-10T11:09:24.968Z,25.4
2022-11-10T11:10:34.679Z,22.1
2022-11-10T11:11:39.236Z,23.2
2022-11-10T11:12:43.744Z,23.7
2022-11-10T11:13:48.019Z,20.7
2022-11-10T11:14:52.500Z,23.2
2022-11-10T11:16:07.423Z,24.4
2022-11-10T11:17:13.191Z,25.3
2022-11-10T11:18:20.742Z,24
2022-11-10T11:19:24.713Z,24.4
2022-11-10T11:20:34.332Z,22.5
2022-11-10T11:21:41.924Z,20.3
2022-11-10T11:22:54.493Z,18.7
2022-11-10T11:24:04.393Z,19.5
2022-11-10T11:25:14.395Z,20.4
2022-11-10T11:26:26.942Z,19.9
2022-11-10T11:27:41.538Z,20.4
2022-11-10T11:28:51.295Z,20.3
2022-11-10T11:30:06.242Z,21.9
2022-11-10T11:31:15.731Z,20.8
2022-11-10T11:32:20.522Z,19.9
2022-11-10T11:33:36.680Z,21.1
2022-11-10T11:34:46.311Z,20.6
2022-11-10T11:35:56.304Z,21.2
2022-11-10T11:37:12.108Z,20.5
2022-11-10T11:38:20.779Z,21.6
2022-11-10T11:39:30.137Z,21.1
2022-11-10T11:40:45.124Z,20.7
2022-11-10T11:41:57.068Z,21.9
2022-11-10T11:43:09.251Z,21
2022-11-10T11:44:24.076Z,21.7
2022-11-10T11:45:33.839Z,21.2
2022-11-10T11:46:48.874Z,21.1
2022-11-10T11:47:58.657Z,19.7
2022-11-10T11:49:11.567Z,18.7
2022-11-10T11:50:21.132Z,19.6
2022-11-10T11:51:33.168Z,18.6
2022-11-10T11:52:40.307Z,19.3
2022-11-10T11:53:52.684Z,19
2022-11-10T11:55:07.577Z,19.9
2022-11-10T11:56:22.631Z,19.1
2022-11-10T11:57:29.803Z,18.6
2022-11-10T11:58:46.245Z,19.9
2022-11-10T12:00:01.354Z,20.1
2022-11-10T12:01:14.051Z,20.9
2022-11-10T12:02:23.707Z,19.1
2022-11-10T12:03:30.846Z,19.7
2022-11-10T12:04:38.026Z,18.9
2022-11-10T12:05:42.656Z,20.6
2022-11-10T12:06:52.829Z,19.6
2022-11-10T12:08:00.081Z,19.7
2022-11-10T12:09:12.838Z,18.9
2022-11-10T12:10:22.238Z,19.3
2022-11-10T12:11:37.058Z,19.7
2022-11-10T12:12:47.004Z,19.3
2022-11-10T12:13:59.313Z,19.9
2022-11-10T12:15:09.151Z,20.9
2022-11-10T12:16:18.833Z,19
2022-11-10T12:17:31.279Z,19.6
2022-11-10T12:18:42.651Z,21.4
2022-11-10T12:19:55.757Z,20.2
2022-11-10T12:21:08.165Z,20.2
2022-11-10T12:22:18.361Z,17.6
2022-11-10T12:23:27.981Z,17.5
2022-11-10T12:24:43.285Z,15.3
2022-11-10T12:25:56.153Z,12.9
2022-11-10T12:27:10.858Z,14.6
2022-11-10T12:28:18.492Z,13.6
2022-11-10T12:29:25.593Z,12.9
2022-11-10T12:30:33.276Z,12.8
2022-11-10T12:31:37.909Z,11.1
2022-11-10T12:32:42.521Z,11.9
2022-11-10T12:33:49.975Z,12.6
2022-11-10T12:34:54.364Z,13.2
2022-11-10T12:36:01.627Z,12.9
2022-11-10T12:37:06.129Z,12.2
2022-11-10T12:38:13.885Z,13.4
2022-11-10T12:39:18.289Z,13.6
2022-11-10T12:40:25.557Z,13
2022-11-10T12:41:32.877Z,13.5
2022-11-10T12:42:37.361Z,13.3
2022-11-10T12:43:41.869Z,13.9
2022-11-10T12:44:56.672Z,13.2
2022-11-10T12:46:08.512Z,12.9
2022-11-10T12:47:33.740Z,9.5
2022-11-10T12:48:58.235Z,9.8
2022-11-10T12:50:08.469Z,10.1
2022-11-10T12:51:17.587Z,14
2022-11-10T12:52:36.933Z,20.7
2022-11-10T12:53:49.792Z,22.2
2022-11-10T12:55:06.150Z,24
2022-11-10T12:56:17.882Z,24.9
2022-11-10T12:57:47.841Z,23.7
2022-11-10T12:58:57.130Z,24.7
2022-11-10T13:00:18.720Z,25.2
2022-11-10T13:01:30.259Z,25.1
2022-11-10T13:03:01.915Z,21.1
2022-11-10T13:04:27.436Z,22.6
2022-11-10T13:05:37.422Z,24.3
2022-11-10T13:06:54.034Z,24.2
2022-11-10T13:08:05.517Z,23.4
2022-11-10T13:09:11.528Z,24.2
2022-11-10T13:10:27.899Z,24.4
2022-11-10T13:11:34.279Z,22.8
2022-11-10T13:12:39.935Z,23.1
2022-11-10T13:13:59.406Z,22.4
2022-11-10T13:15:01.465Z,21.8
2022-11-10T13:16:06.543Z,22.4
2022-11-10T13:17:12.212Z,20.9
2022-11-10T13:18:28.131Z,23
2022-11-10T13:19:33.981Z,22.2
2022-11-10T13:20:38.748Z,23.4
2022-11-10T13:21:46.530Z,23.5
2022-11-10T13:22:51.082Z,23.6
2022-11-10T13:23:55.495Z,21.6
2022-11-10T13:25:03.515Z,19.7
2022-11-10T13:26:15.623Z,20.8
2022-11-10T13:27:28.635Z,20.8
2022-11-10T13:28:34.987Z,19.2
2022-11-10T13:29:51.554Z,19.4
2022-11-10T13:30:58.994Z,18
2022-11-10T13:32:05.398Z,18
2022-11-10T13:33:14.851Z,18.2
2022-11-10T13:34:29.030Z,17.5
2022-11-10T13:35:35.052Z,18.2
2022-11-10T13:36:41.213Z,16.9
2022-11-10T13:37:46.694Z,17.6
2022-11-10T13:38:51.048Z,16.4
2022-11-10T13:39:56.948Z,15.1
2022-11-10T13:42:51.893Z,15.1
2022-11-10T13:43:59.230Z,15.1
2022-11-10T13:45:04.021Z,14.6
2022-11-10T13:46:19.759Z,15.2
2022-11-10T13:47:36.428Z,16
2022-11-10T13:48:49.132Z,14.7
2022-11-10T13:49:55.839Z,14.5
2022-11-10T13:51:02.386Z,15.1
2022-11-10T13:52:13.408Z,15.4
2022-11-10T13:53:25.235Z,14.2
2022-11-10T13:54:38.980Z,15.2
2022-11-10T13:55:55.352Z,17.1
2022-11-10T13:57:06.774Z,16.2
2022-11-10T13:58:20.618Z,17.1
2022-11-10T13:59:26.136Z,20.1
2022-11-10T14:00:32.621Z,19
2022-11-10T14:01:39.668Z,20.2
2022-11-10T14:02:45.875Z,20.8
2022-11-10T14:03:55.305Z,18.5
2022-11-10T14:05:00.736Z,19.1
2022-11-10T14:06:06.834Z,21
2022-11-10T14:07:14.823Z,18.4
2022-11-10T14:08:20.506Z,20.4
2022-11-10T14:09:26.220Z,20.4
2022-11-10T14:10:37.723Z,21.2
2022-11-10T14:11:50.314Z,18
2022-11-10T14:12:57.452Z,19.5
2022-11-10T14:14:03.612Z,18.3
2022-11-10T14:15:12.172Z,19.5
2022-11-10T14:16:17.765Z,19.9
2022-11-10T14:17:23.649Z,19.3
2022-11-10T14:18:32.958Z,22.3
2022-11-10T14:19:44.205Z,23.4
2022-11-10T14:20:49.592Z,25.3
2022-11-10T14:22:00.608Z,27.2
2022-11-10T14:23:09.172Z,27.5
2022-11-10T14:24:25.139Z,28.7
2022-11-10T14:25:33.176Z,28.7
2022-11-10T14:26:39.188Z,28.2
2022-11-10T14:27:45.357Z,24.6
2022-11-10T14:28:50.705Z,27.3
2022-11-10T14:29:56.326Z,28.4
2022-11-10T14:31:07.276Z,28.5
2022-11-10T14:32:18.013Z,27.1
2022-11-10T14:33:23.429Z,28.9
2022-11-10T14:34:30.101Z,26.5
2022-11-10T14:35:35.818Z,26.3
2022-11-10T14:36:50.250Z,27.7
2022-11-10T14:37:56.446Z,27.2
2022-11-10T14:39:04.361Z,27.4
2022-11-10T14:40:11.424Z,26.9
2022-11-10T14:41:17.897Z,27.2
2022-11-10T14:42:23.358Z,28.9
2022-11-10T14:43:31.936Z,29.5
2022-11-10T14:44:38.344Z,28.6
2022-11-10T14:45:43.880Z,28.5
2022-11-10T14:46:52.235Z,25.9
2022-11-10T14:47:57.493Z,25.8
2022-11-10T14:49:02.915Z,27.9
2022-11-10T14:50:08.656Z,28.9